sensor_id;sensor_type;location;lat;lon;timestamp;pressure;altitude;pressure_sealevel;temperature;humidity
8894;BME280;4483;48.622;9.230;2022-10-31T00:01:54;98368.06;;;11.43;100.00
8894;BME280;4483;48.622;9.230;2022-10-31T00:04:21;98369.03;;;11.40;100.00
8894;BME280;4483;48.622;9.230;2022-10-31T00:06:48;98373.47;;;11.37;100.00
8894;BME280;4483;48.622;9.230;2022-10-31T00:09:14;98377.94;;;11.32;100.00
8894;BME280;4483;48.622;9.230;2022-10-31T00:11:42;98369.50;;;11.27;100.00
8894;BME280;4483;48.622;9.230;2022-10-31T00:14:09;98369.63;;;11.24;100.00
8894;BME280;4483;48.622;9.230;2022-10-31T00:16:35;98367.09;;;11.22;100.00
8894;BME280;4483;48.622;9.230;2022-10-31T00:19:04;98366.25;;;11.22;100.00
8894;BME280;4483;48.622;9.230;2022-10-31T00:21:32;98372.31;;;11.21;100.00
8894;BME280;4483;48.622;9.230;2022-10-31T00:23:59;98368.16;;;11.17;100.00
8894;BME280;4483;48.622;9.230;2022-10-31T00:26:27;98353.56;;;11.15;100.00
8894;BME280;4483;48.622;9.230;2022-10-31T00:28:55;98364.97;;;11.08;100.00
8894;BME280;4483;48.622;9.230;2022-10-31T00:31:22;98365.09;;;11.05;100.00
8894;BME280;4483;48.622;9.230;2022-10-31T00:33:49;98366.84;;;11.05;100.00
8894;BME280;4483;48.622;9.230;2022-10-31T00:36:17;98372.91;;;11.02;100.00
8894;BME280;4483;48.622;9.230;2022-10-31T00:38:45;98367.00;;;11.00;100.00
8894;BME280;4483;48.622;9.230;2022-10-31T00:41:13;98368.78;;;10.98;100.00
8894;BME280;4483;48.622;9.230;2022-10-31T00:43:41;98363.63;;;10.98;100.00
8894;BME280;4483;48.622;9.230;2022-10-31T00:46:09;98356.94;;;10.93;100.00
8894;BME280;4483;48.622;9.230;2022-10-31T00:48:35;98363.72;;;10.95;100.00
8894;BME280;4483;48.622;9.230;2022-10-31T00:51:02;98367.13;;;10.96;100.00
8894;BME280;4483;48.622;9.230;2022-10-31T00:53:29;98366.34;;;10.94;100.00
8894;BME280;4483;48.622;9.230;2022-10-31T00:55:55;98364.69;;;10.91;100.00
8894;BME280;4483;48.622;9.230;2022-10-31T00:58:22;98362.25;;;10.88;100.00
8894;BME280;4483;48.622;9.230;2022-10-31T01:00:49;98366.53;;;10.89;100.00
8894;BME280;4483;48.622;9.230;2022-10-31T01:03:22;98364.03;;;10.86;100.00
8894;BME280;4483;48.622;9.230;2022-10-31T01:05:59;98353.81;;;10.83;100.00
8894;BME280;4483;48.622;9.230;2022-10-31T01:08:26;98365.00;;;10.84;100.00
8894;BME280;4483;48.622;9.230;2022-10-31T01:11:05;98363.34;;;10.81;100.00
8894;BME280;4483;48.622;9.230;2022-10-31T01:13:33;98353.34;;;10.72;100.00
8894;BME280;4483;48.622;9.230;2022-10-31T01:16:02;98357.56;;;10.75;100.00
8894;BME280;4483;48.622;9.230;2022-10-31T01:18:30;98356.72;;;10.74;100.00
8894;BME280;4483;48.622;9.230;2022-10-31T01:21:00;98363.72;;;10.71;100.00
8894;BME280;4483;48.622;9.230;2022-10-31T01:23:28;98358.63;;;10.68;100.00
8894;BME280;4483;48.622;9.230;2022-10-31T01:26:04;98357.81;;;10.67;100.00
8894;BME280;4483;48.622;9.230;2022-10-31T01:28:31;98355.31;;;10.64;100.00
8894;BME280;4483;48.622;9.230;2022-10-31T01:31:00;98351.94;;;10.62;100.00
8894;BME280;4483;48.622;9.230;2022-10-31T01:33:27;98354.63;;;10.59;100.00
8894;BME280;4483;48.622;9.230;2022-10-31T01:35:55;98351.25;;;10.57;100.00
8894;BME280;4483;48.622;9.230;2022-10-31T01:38:21;98348.78;;;10.54;100.00
8894;BME280;4483;48.622;9.230;2022-10-31T01:40:48;98354.03;;;10.51;100.00
8894;BME280;4483;48.622;9.230;2022-10-31T01:43:15;98347.25;;;10.49;100.00
8894;BME280;4483;48.622;9.230;2022-10-31T01:45:42;98349.97;;;10.44;100.00
8894;BME280;4483;48.622;9.230;2022-10-31T01:48:13;98359.41;;;10.45;100.00
8894;BME280;4483;48.622;9.230;2022-10-31T01:50:43;98353.44;;;10.43;100.00
8894;BME280;4483;48.622;9.230;2022-10-31T01:53:12;98354.38;;;10.41;100.00
8894;BME280;4483;48.622;9.230;2022-10-31T01:55:41;98355.28;;;10.40;100.00
8894;BME280;4483;48.622;9.230;2022-10-31T01:58:13;98343.28;;;10.39;100.00
8894;BME280;4483;48.622;9.230;2022-10-31T02:00:43;98339.94;;;10.35;100.00
8894;BME280;4483;48.622;9.230;2022-10-31T02:03:11;98342.44;;;10.38;100.00
8894;BME280;4483;48.622;9.230;2022-10-31T02:05:38;98342.44;;;10.38;100.00
8894;BME280;4483;48.622;9.230;2022-10-31T02:08:08;98344.22;;;10.36;100.00
8894;BME280;4483;48.622;9.230;2022-10-31T02:10:40;98339.16;;;10.33;100.00
8894;BME280;4483;48.622;9.230;2022-10-31T02:13:08;98347.78;;;10.32;100.00
8894;BME280;4483;48.622;9.230;2022-10-31T02:15:37;98346.88;;;10.33;100.00
8894;BME280;4483;48.622;9.230;2022-10-31T02:18:04;98337.59;;;10.29;100.00
8894;BME280;4483;48.622;9.230;2022-10-31T02:20:34;98345.25;;;10.31;100.00
8894;BME280;4483;48.622;9.230;2022-10-31T02:23:20;98341.84;;;10.30;100.00
8894;BME280;4483;48.622;9.230;2022-10-31T02:26:12;98344.53;;;10.26;100.00
8894;BME280;4483;48.622;9.230;2022-10-31T02:28:53;98347.22;;;10.23;100.00
8894;BME280;4483;48.622;9.230;2022-10-31T02:31:31;98342.97;;;10.22;100.00
8894;BME280;4483;48.622;9.230;2022-10-31T02:34:06;98337.09;;;10.18;100.00
8894;BME280;4483;48.622;9.230;2022-10-31T02:36:42;98338.88;;;10.16;100.00
8894;BME280;4483;48.622;9.230;2022-10-31T02:39:16;98338.94;;;10.13;100.00
8894;BME280;4483;48.622;9.230;2022-10-31T02:41:48;98332.13;;;10.12;100.00
8894;BME280;4483;48.622;9.230;2022-10-31T02:44:22;98346.75;;;10.10;100.00
8894;BME280;4483;48.622;9.230;2022-10-31T02:46:58;98339.06;;;10.08;100.00
8894;BME280;4483;48.622;9.230;2022-10-31T02:49:28;98343.34;;;10.08;100.00
8894;BME280;4483;48.622;9.230;2022-10-31T02:51:58;98342.56;;;10.06;100.00
8894;BME280;4483;48.622;9.230;2022-10-31T02:54:26;98350.34;;;10.04;100.00
8894;BME280;4483;48.622;9.230;2022-10-31T02:56:58;98340.22;;;9.98;100.00
8894;BME280;4483;48.622;9.230;2022-10-31T02:59:28;98349.59;;;10.01;100.00
8894;BME280;4483;48.622;9.230;2022-10-31T03:02:16;98344.63;;;9.95;100.00
8894;BME280;4483;48.622;9.230;2022-10-31T03:05:11;98338.78;;;9.90;100.00
8894;BME280;4483;48.622;9.230;2022-10-31T03:07:47;98344.03;;;9.85;100.00
8894;BME280;4483;48.622;9.230;2022-10-31T03:10:21;98349.19;;;9.85;100.00
8894;BME280;4483;48.622;9.230;2022-10-31T03:13:00;98349.25;;;9.84;100.00
8894;BME280;4483;48.622;9.230;2022-10-31T03:15:30;98347.56;;;9.83;100.00
8894;BME280;4483;48.622;9.230;2022-10-31T03:18:02;98344.25;;;9.79;100.00
8894;BME280;4483;48.622;9.230;2022-10-31T03:20:34;98350.22;;;9.80;100.00
8894;BME280;4483;48.622;9.230;2022-10-31T03:23:06;98342.53;;;9.78;100.00
8894;BME280;4483;48.622;9.230;2022-10-31T03:25:34;98339.22;;;9.75;100.00
8894;BME280;4483;48.622;9.230;2022-10-31T03:28:04;98347.97;;;9.69;100.00
8894;BME280;4483;48.622;9.230;2022-10-31T03:30:33;98337.84;;;9.63;100.00
8894;BME280;4483;48.622;9.230;2022-10-31T03:33:06;98340.56;;;9.59;100.00
8894;BME280;4483;48.622;9.230;2022-10-31T03:35:36;98350.91;;;9.57;100.00
8894;BME280;4483;48.622;9.230;2022-10-31T03:38:03;98345.00;;;9.54;100.00
8894;BME280;4483;48.622;9.230;2022-10-31T03:40:33;98344.19;;;9.52;100.00
8894;BME280;4483;48.622;9.230;2022-10-31T03:43:05;98336.53;;;9.49;100.00
8894;BME280;4483;48.622;9.230;2022-10-31T03:45:37;98349.38;;;9.50;100.00
8894;BME280;4483;48.622;9.230;2022-10-31T03:48:06;98347.69;;;9.49;100.00
8894;BME280;4483;48.622;9.230;2022-10-31T03:50:39;98345.16;;;9.48;100.00
8894;BME280;4483;48.622;9.230;2022-10-31T03:53:11;98350.34;;;9.46;100.00
8894;BME280;4483;48.622;9.230;2022-10-31T03:55:43;98315.69;;;9.29;100.00
8894;BME280;4483;48.622;9.230;2022-10-31T03:58:15;98331.72;;;9.38;100.00
8894;BME280;4483;48.622;9.230;2022-10-31T04:00:46;98324.06;;;9.37;100.00
8894;BME280;4483;48.622;9.230;2022-10-31T04:03:20;98337.72;;;9.39;100.00
8894;BME280;4483;48.622;9.230;2022-10-31T04:05:49;98346.28;;;9.39;100.00
8894;BME280;4483;48.622;9.230;2022-10-31T04:08:20;98339.53;;;9.35;100.00
8894;BME280;4483;48.622;9.230;2022-10-31T04:10:49;98336.09;;;9.35;100.00
8894;BME280;4483;48.622;9.230;2022-10-31T04:13:19;98337.03;;;9.32;100.00
8894;BME280;4483;48.622;9.230;2022-10-31T04:15:48;98337.06;;;9.31;100.00
8894;BME280;4483;48.622;9.230;2022-10-31T04:18:18;98337.97;;;9.30;100.00
8894;BME280;4483;48.622;9.230;2022-10-31T04:20:45;98334.69;;;9.25;100.00
8894;BME280;4483;48.622;9.230;2022-10-31T04:23:17;98330.38;;;9.25;100.00
8894;BME280;4483;48.622;9.230;2022-10-31T04:25:45;98328.69;;;9.24;100.00
8894;BME280;4483;48.622;9.230;2022-10-31T04:28:11;98330.41;;;9.24;100.00
8894;BME280;4483;48.622;9.230;2022-10-31T04:30:38;98339.91;;;9.22;100.00
8894;BME280;4483;48.622;9.230;2022-10-31T04:33:05;98335.69;;;9.19;100.00
8894;BME280;4483;48.622;9.230;2022-10-31T04:35:33;98332.31;;;9.17;100.00
8894;BME280;4483;48.622;9.230;2022-10-31T04:37:59;98326.38;;;9.15;100.00
8894;BME280;4483;48.622;9.230;2022-10-31T04:40:26;98326.44;;;9.12;100.00
8894;BME280;4483;48.622;9.230;2022-10-31T04:42:52;98323.97;;;9.09;100.00
8894;BME280;4483;48.622;9.230;2022-10-31T04:45:19;98321.41;;;9.09;100.00
8894;BME280;4483;48.622;9.230;2022-10-31T04:47:46;98323.19;;;9.05;100.00
8894;BME280;4483;48.622;9.230;2022-10-31T04:50:13;98316.41;;;9.04;100.00
8894;BME280;4483;48.622;9.230;2022-10-31T04:52:42;98318.16;;;9.02;100.00
8894;BME280;4483;48.622;9.230;2022-10-31T04:55:09;98318.97;;;9.03;100.00
8894;BME280;4483;48.622;9.230;2022-10-31T04:57:40;98314.78;;;9.00;100.00
8894;BME280;4483;48.622;9.230;2022-10-31T05:00:08;98315.66;;;8.99;100.00
8894;BME280;4483;48.622;9.230;2022-10-31T05:02:42;98314.78;;;9.00;100.00
8894;BME280;4483;48.622;9.230;2022-10-31T05:05:09;98310.56;;;8.98;100.00
8894;BME280;4483;48.622;9.230;2022-10-31T05:07:38;98304.56;;;8.97;100.00
8894;BME280;4483;48.622;9.230;2022-10-31T05:10:08;98312.38;;;8.94;100.00
8894;BME280;4483;48.622;9.230;2022-10-31T05:12:35;98306.50;;;8.89;100.00
8894;BME280;4483;48.622;9.230;2022-10-31T05:15:02;98311.72;;;8.86;100.00
8894;BME280;4483;48.622;9.230;2022-10-31T05:17:28;98306.66;;;8.83;100.00
8894;BME280;4483;48.622;9.230;2022-10-31T05:19:56;98300.72;;;8.81;100.00
8894;BME280;4483;48.622;9.230;2022-10-31T05:22:23;98256.97;;;8.52;100.00
8894;BME280;4483;48.622;9.230;2022-10-31T05:24:49;98298.34;;;8.74;100.00
8894;BME280;4483;48.622;9.230;2022-10-31T05:27:17;98295.72;;;8.75;100.00
8894;BME280;4483;48.622;9.230;2022-10-31T05:29:44;98299.16;;;8.76;100.00
8894;BME280;4483;48.622;9.230;2022-10-31T05:32:10;98267.16;;;8.55;100.00
8894;BME280;4483;48.622;9.230;2022-10-31T05:34:37;98290.72;;;8.71;100.00
8894;BME280;4483;48.622;9.230;2022-10-31T05:37:03;98292.53;;;8.67;100.00
8894;BME280;4483;48.622;9.230;2022-10-31T05:39:30;98285.78;;;8.63;100.00
8894;BME280;4483;48.622;9.230;2022-10-31T05:41:57;98292.66;;;8.63;100.00
8894;BME280;4483;48.622;9.230;2022-10-31T05:44:25;98291.81;;;8.62;100.00
8894;BME280;4483;48.622;9.230;2022-10-31T05:46:51;98289.31;;;8.59;100.00
8894;BME280;4483;48.622;9.230;2022-10-31T05:49:18;98258.09;;;8.42;100.00
8894;BME280;4483;48.622;9.230;2022-10-31T05:51:45;98280.94;;;8.53;100.00
8894;BME280;4483;48.622;9.230;2022-10-31T05:54:11;98285.97;;;8.56;100.00
8894;BME280;4483;48.622;9.230;2022-10-31T05:56:38;98286.06;;;8.53;100.00
8894;BME280;4483;48.622;9.230;2022-10-31T05:59:04;98286.13;;;8.50;100.00
8894;BME280;4483;48.622;9.230;2022-10-31T06:01:32;98286.13;;;8.51;100.00
8894;BME280;4483;48.622;9.230;2022-10-31T06:03:59;98289.50;;;8.53;100.00
8894;BME280;4483;48.622;9.230;2022-10-31T06:06:25;98285.22;;;8.52;100.00
8894;BME280;4483;48.622;9.230;2022-10-31T06:08:52;98289.50;;;8.52;100.00
8894;BME280;4483;48.622;9.230;2022-10-31T06:11:18;98291.16;;;8.54;100.00
8894;BME280;4483;48.622;9.230;2022-10-31T06:13:45;98300.53;;;8.57;100.00
8894;BME280;4483;48.622;9.230;2022-10-31T06:16:12;98289.34;;;8.58;100.00
8894;BME280;4483;48.622;9.230;2022-10-31T06:18:39;98280.88;;;8.54;100.00
8894;BME280;4483;48.622;9.230;2022-10-31T06:21:06;98291.78;;;8.64;100.00
8894;BME280;4483;48.622;9.230;2022-10-31T06:23:32;98285.59;;;8.71;100.00
8894;BME280;4483;48.622;9.230;2022-10-31T06:25:59;98288.69;;;8.83;100.00
8894;BME280;4483;48.622;9.230;2022-10-31T06:28:26;98285.63;;;9.01;100.00
8894;BME280;4483;48.622;9.230;2022-10-31T06:30:52;98296.91;;;9.27;100.00
8894;BME280;4483;48.622;9.230;2022-10-31T06:33:19;98293.81;;;9.45;100.00
8894;BME280;4483;48.622;9.230;2022-10-31T06:35:47;98288.09;;;9.64;99.80
8894;BME280;4483;48.622;9.230;2022-10-31T06:38:14;98287.19;;;9.93;99.06
8894;BME280;4483;48.622;9.230;2022-10-31T06:40:41;98288.75;;;10.26;98.36
8894;BME280;4483;48.622;9.230;2022-10-31T06:43:07;98283.22;;;10.63;97.60
8894;BME280;4483;48.622;9.230;2022-10-31T06:45:34;98281.13;;;10.98;95.85
8894;BME280;4483;48.622;9.230;2022-10-31T06:48:00;98281.47;;;11.36;95.14
8894;BME280;4483;48.622;9.230;2022-10-31T06:50:27;98286.25;;;11.69;93.69
8894;BME280;4483;48.622;9.230;2022-10-31T06:52:56;98281.47;;;12.03;91.16
8894;BME280;4483;48.622;9.230;2022-10-31T06:55:24;98279.13;;;12.19;91.22
8894;BME280;4483;48.622;9.230;2022-10-31T06:57:52;98272.19;;;12.41;90.41
8894;BME280;4483;48.622;9.230;2022-10-31T07:00:19;98276.13;;;12.50;89.31
8894;BME280;4483;48.622;9.230;2022-10-31T07:02:53;98275.84;;;12.16;88.24
8894;BME280;4483;48.622;9.230;2022-10-31T07:05:19;98277.31;;;11.99;88.40
8894;BME280;4483;48.622;9.230;2022-10-31T07:07:46;98285.03;;;12.01;88.59
8894;BME280;4483;48.622;9.230;2022-10-31T07:10:14;98283.34;;;12.00;88.84
8894;BME280;4483;48.622;9.230;2022-10-31T07:12:41;98283.81;;;11.88;88.34
8894;BME280;4483;48.622;9.230;2022-10-31T07:15:08;98265.25;;;12.00;88.46
8894;BME280;4483;48.622;9.230;2022-10-31T07:17:34;98280.81;;;12.20;88.38
8894;BME280;4483;48.622;9.230;2022-10-31T07:20:01;98274.44;;;12.29;88.36
8894;BME280;4483;48.622;9.230;2022-10-31T07:22:32;98283.88;;;12.50;87.86
8894;BME280;4483;48.622;9.230;2022-10-31T07:24:59;98283.72;;;12.54;86.79
8894;BME280;4483;48.622;9.230;2022-10-31T07:27:27;98278.84;;;12.47;85.91
8894;BME280;4483;48.622;9.230;2022-10-31T07:29:53;98276.97;;;12.30;86.46
8894;BME280;4483;48.622;9.230;2022-10-31T07:32:20;98282.59;;;12.18;86.53
8894;BME280;4483;48.622;9.230;2022-10-31T07:34:46;98283.97;;;12.05;86.79
8894;BME280;4483;48.622;9.230;2022-10-31T07:37:13;98278.16;;;12.00;87.37
8894;BME280;4483;48.622;9.230;2022-10-31T07:39:39;98279.72;;;12.04;87.29
8894;BME280;4483;48.622;9.230;2022-10-31T07:42:06;98283.03;;;12.07;87.37
8894;BME280;4483;48.622;9.230;2022-10-31T07:44:34;98284.72;;;12.08;87.65
8894;BME280;4483;48.622;9.230;2022-10-31T07:47:00;98278.47;;;12.14;87.45
8894;BME280;4483;48.622;9.230;2022-10-31T07:49:27;98283.44;;;12.19;87.39
8894;BME280;4483;48.622;9.230;2022-10-31T07:51:54;98279.78;;;12.24;87.38
8894;BME280;4483;48.622;9.230;2022-10-31T07:54:21;98272.81;;;12.26;87.42
8894;BME280;4483;48.622;9.230;2022-10-31T07:56:48;98277.66;;;12.34;87.32
8894;BME280;4483;48.622;9.230;2022-10-31T07:59:14;98280.84;;;12.40;86.95
8894;BME280;4483;48.622;9.230;2022-10-31T08:01:42;98274.72;;;12.43;86.67
8894;BME280;4483;48.622;9.230;2022-10-31T08:04:08;98271.03;;;12.48;86.85
8894;BME280;4483;48.622;9.230;2022-10-31T08:06:35;98274.19;;;12.55;86.87
8894;BME280;4483;48.622;9.230;2022-10-31T08:09:02;98278.03;;;12.66;86.65
8894;BME280;4483;48.622;9.230;2022-10-31T08:11:28;98269.63;;;12.81;86.86
8894;BME280;4483;48.622;9.230;2022-10-31T08:13:55;98273.28;;;12.96;86.37
8894;BME280;4483;48.622;9.230;2022-10-31T08:16:22;98265.72;;;13.11;86.16
8894;BME280;4483;48.622;9.230;2022-10-31T08:18:49;98277.38;;;13.22;86.40
8894;BME280;4483;48.622;9.230;2022-10-31T08:21:17;98272.22;;;13.40;86.14
8894;BME280;4483;48.622;9.230;2022-10-31T08:23:44;98274.78;;;13.59;85.63
8894;BME280;4483;48.622;9.230;2022-10-31T08:26:10;98266.03;;;13.80;84.99
8894;BME280;4483;48.622;9.230;2022-10-31T08:28:37;98267.41;;;14.05;85.32
8894;BME280;4483;48.622;9.230;2022-10-31T08:31:03;98257.44;;;14.34;84.12
8894;BME280;4483;48.622;9.230;2022-10-31T08:33:31;98260.09;;;14.49;83.88
8894;BME280;4483;48.622;9.230;2022-10-31T08:35:59;98251.72;;;14.61;83.11
8894;BME280;4483;48.622;9.230;2022-10-31T08:38:25;98255.34;;;14.74;82.89
8894;BME280;4483;48.622;9.230;2022-10-31T08:40:52;98256.31;;;14.89;83.37
8894;BME280;4483;48.622;9.230;2022-10-31T08:43:18;98249.97;;;15.11;83.03
8894;BME280;4483;48.622;9.230;2022-10-31T08:45:48;98244.38;;;15.19;82.09
8894;BME280;4483;48.622;9.230;2022-10-31T08:48:16;98243.78;;;15.30;81.44
8894;BME280;4483;48.622;9.230;2022-10-31T08:50:44;98248.97;;;15.47;81.34
8894;BME280;4483;48.622;9.230;2022-10-31T08:53:14;98240.38;;;15.62;81.16
8894;BME280;4483;48.622;9.230;2022-10-31T08:55:41;98242.59;;;15.68;80.47
8894;BME280;4483;48.622;9.230;2022-10-31T08:58:10;98237.50;;;15.66;80.19
8894;BME280;4483;48.622;9.230;2022-10-31T09:00:37;98238.75;;;15.59;80.35
8894;BME280;4483;48.622;9.230;2022-10-31T09:03:05;98235.41;;;15.57;80.86
8894;BME280;4483;48.622;9.230;2022-10-31T09:05:33;98239.59;;;15.60;80.93
8894;BME280;4483;48.622;9.230;2022-10-31T09:08:01;98232.56;;;15.62;81.00
8894;BME280;4483;48.622;9.230;2022-10-31T09:10:31;98242.47;;;15.71;80.64
8894;BME280;4483;48.622;9.230;2022-10-31T09:12:58;98234.56;;;15.72;80.67
8894;BME280;4483;48.622;9.230;2022-10-31T09:15:27;98236.91;;;15.77;80.90
8894;BME280;4483;48.622;9.230;2022-10-31T09:17:54;98244.63;;;15.94;80.74
8894;BME280;4483;48.622;9.230;2022-10-31T09:20:20;98231.53;;;16.11;80.75
8894;BME280;4483;48.622;9.230;2022-10-31T09:22:47;98231.47;;;16.27;79.98
8894;BME280;4483;48.622;9.230;2022-10-31T09:25:14;98223.75;;;16.41;79.71
8894;BME280;4483;48.622;9.230;2022-10-31T09:27:41;98223.03;;;16.53;79.71
8894;BME280;4483;48.622;9.230;2022-10-31T09:30:09;98221.50;;;16.64;79.50
8894;BME280;4483;48.622;9.230;2022-10-31T09:32:36;98211.56;;;16.71;78.91
8894;BME280;4483;48.622;9.230;2022-10-31T09:35:02;98219.75;;;16.79;78.90
8894;BME280;4483;48.622;9.230;2022-10-31T09:37:29;98211.31;;;16.89;78.67
8894;BME280;4483;48.622;9.230;2022-10-31T09:39:55;98209.63;;;17.02;77.98
8894;BME280;4483;48.622;9.230;2022-10-31T09:42:47;98206.66;;;17.08;77.60
8894;BME280;4483;48.622;9.230;2022-10-31T09:45:20;98198.00;;;17.22;77.70
8894;BME280;4483;48.622;9.230;2022-10-31T09:48:00;98207.66;;;17.34;77.65
8894;BME280;4483;48.622;9.230;2022-10-31T09:50:36;98208.59;;;17.47;77.02
8894;BME280;4483;48.622;9.230;2022-10-31T09:53:09;98204.59;;;17.56;77.05
8894;BME280;4483;48.622;9.230;2022-10-31T09:55:41;98207.38;;;17.67;76.68
8894;BME280;4483;48.622;9.230;2022-10-31T09:58:14;98209.66;;;17.85;76.84
8894;BME280;4483;48.622;9.230;2022-10-31T10:00:42;98203.44;;;18.00;76.13
8894;BME280;4483;48.622;9.230;2022-10-31T10:03:15;98197.84;;;18.19;75.99
8894;BME280;4483;48.622;9.230;2022-10-31T10:05:49;98197.72;;;18.35;75.42
8894;BME280;4483;48.622;9.230;2022-10-31T10:08:22;98194.63;;;18.55;75.36
8894;BME280;4483;48.622;9.230;2022-10-31T10:10:51;98194.13;;;18.62;73.31
8894;BME280;4483;48.622;9.230;2022-10-31T10:16:40;98186.41;;;18.86;73.20
8894;BME280;4483;48.622;9.230;2022-10-31T10:19:21;98191.09;;;18.93;72.19
8894;BME280;4483;48.622;9.230;2022-10-31T10:21:58;98192.34;;;19.00;72.62
8894;BME280;4483;48.622;9.230;2022-10-31T10:24:35;98194.84;;;19.15;71.30
8894;BME280;4483;48.622;9.230;2022-10-31T10:27:13;98181.03;;;19.25;71.90
8894;BME280;4483;48.622;9.230;2022-10-31T10:29:49;98178.31;;;19.14;71.44
8894;BME280;4483;48.622;9.230;2022-10-31T10:32:20;98190.97;;;19.08;70.51
8894;BME280;4483;48.622;9.230;2022-10-31T10:34:51;98186.81;;;18.92;71.55
8894;BME280;4483;48.622;9.230;2022-10-31T10:37:26;98181.47;;;18.81;71.40
8894;BME280;4483;48.622;9.230;2022-10-31T10:39:56;98178.47;;;18.75;72.56
8894;BME280;4483;48.622;9.230;2022-10-31T10:42:26;98175.41;;;18.68;72.92
8894;BME280;4483;48.622;9.230;2022-10-31T10:45:17;98175.13;;;18.60;73.27
8894;BME280;4483;48.622;9.230;2022-10-31T10:48:08;98163.09;;;18.45;73.47
8894;BME280;4483;48.622;9.230;2022-10-31T10:50:41;98164.59;;;18.35;73.50
8894;BME280;4483;48.622;9.230;2022-10-31T10:53:21;98164.81;;;18.32;74.56
8894;BME280;4483;48.622;9.230;2022-10-31T10:56:02;98157.38;;;18.26;74.16
8894;BME280;4483;48.622;9.230;2022-10-31T10:58:30;98146.97;;;18.26;74.90
8894;BME280;4483;48.622;9.230;2022-10-31T11:00:58;98149.84;;;18.48;74.59
8894;BME280;4483;48.622;9.230;2022-10-31T11:03:25;98136.59;;;18.76;74.51
8894;BME280;4483;48.622;9.230;2022-10-31T11:05:53;98133.59;;;19.19;73.53
8894;BME280;4483;48.622;9.230;2022-10-31T11:08:23;98137.09;;;19.55;72.26
8894;BME280;4483;48.622;9.230;2022-10-31T11:10:56;98139.47;;;19.82;71.59
8894;BME280;4483;48.622;9.230;2022-10-31T11:13:24;98118.78;;;20.14;70.33
8894;BME280;4483;48.622;9.230;2022-10-31T11:15:59;98120.81;;;20.45;69.02
8894;BME280;4483;48.622;9.230;2022-10-31T11:18:27;98117.59;;;20.41;68.73
8894;BME280;4483;48.622;9.230;2022-10-31T11:20:57;98110.66;;;20.29;68.62
8894;BME280;4483;48.622;9.230;2022-10-31T11:23:25;98105.91;;;20.23;68.09
8894;BME280;4483;48.622;9.230;2022-10-31T11:25:55;98113.88;;;20.33;67.83
8894;BME280;4483;48.622;9.230;2022-10-31T11:28:23;98114.84;;;20.43;67.35
8894;BME280;4483;48.622;9.230;2022-10-31T11:30:52;98096.69;;;20.63;66.69
8894;BME280;4483;48.622;9.230;2022-10-31T11:33:27;98097.41;;;20.76;66.03
8894;BME280;4483;48.622;9.230;2022-10-31T11:35:55;98097.63;;;20.84;65.23
8894;BME280;4483;48.622;9.230;2022-10-31T11:38:24;98081.69;;;20.87;64.60
8894;BME280;4483;48.622;9.230;2022-10-31T11:40:54;98087.72;;;20.99;64.62
8894;BME280;4483;48.622;9.230;2022-10-31T11:43:22;98082.66;;;21.09;63.90
8894;BME280;4483;48.622;9.230;2022-10-31T11:45:49;98083.72;;;21.06;63.86
8894;BME280;4483;48.622;9.230;2022-10-31T11:48:17;98075.75;;;21.08;63.33
8894;BME280;4483;48.622;9.230;2022-10-31T11:50:50;98078.47;;;21.06;63.07
8894;BME280;4483;48.622;9.230;2022-10-31T11:53:19;98075.16;;;21.04;63.18
8894;BME280;4483;48.622;9.230;2022-10-31T11:55:48;98073.47;;;21.14;63.58
8894;BME280;4483;48.622;9.230;2022-10-31T11:58:26;98064.75;;;21.14;62.53
8894;BME280;4483;48.622;9.230;2022-10-31T12:00:54;98064.19;;;21.10;62.80
8894;BME280;4483;48.622;9.230;2022-10-31T12:03:35;98060.63;;;21.00;62.90
8894;BME280;4483;48.622;9.230;2022-10-31T12:06:07;98056.09;;;21.02;63.30
8894;BME280;4483;48.622;9.230;2022-10-31T12:08:37;98045.63;;;21.02;63.39
8894;BME280;4483;48.622;9.230;2022-10-31T12:11:11;98053.47;;;20.91;63.06
8894;BME280;4483;48.622;9.230;2022-10-31T12:13:45;98055.25;;;20.79;62.76
8894;BME280;4483;48.622;9.230;2022-10-31T12:16:20;98051.94;;;20.66;63.69
8894;BME280;4483;48.622;9.230;2022-10-31T12:18:56;98046.09;;;20.52;63.93
8894;BME280;4483;48.622;9.230;2022-10-31T12:21:36;98041.81;;;20.40;64.29
8894;BME280;4483;48.622;9.230;2022-10-31T12:24:13;98035.00;;;20.26;65.09
8894;BME280;4483;48.622;9.230;2022-10-31T12:26:48;98035.22;;;20.12;64.92
8894;BME280;4483;48.622;9.230;2022-10-31T12:29:33;98032.09;;;19.96;64.99
8894;BME280;4483;48.622;9.230;2022-10-31T12:32:17;98032.28;;;19.93;65.43
8894;BME280;4483;48.622;9.230;2022-10-31T12:35:13;98032.06;;;19.85;65.61
8894;BME280;4483;48.622;9.230;2022-10-31T12:37:57;98012.03;;;19.73;65.65
8894;BME280;4483;48.622;9.230;2022-10-31T12:40:36;98004.88;;;19.64;65.90
8894;BME280;4483;48.622;9.230;2022-10-31T12:43:17;98007.47;;;19.53;66.14
8894;BME280;4483;48.622;9.230;2022-10-31T12:45:53;98009.91;;;19.43;66.71
8894;BME280;4483;48.622;9.230;2022-10-31T12:48:41;98006.91;;;19.37;66.96
8894;BME280;4483;48.622;9.230;2022-10-31T12:51:18;98010.69;;;19.33;67.15
8894;BME280;4483;48.622;9.230;2022-10-31T12:54:01;97996.16;;;19.29;67.58
8894;BME280;4483;48.622;9.230;2022-10-31T12:56:37;97986.06;;;19.24;68.28
8894;BME280;4483;48.622;9.230;2022-10-31T12:59:13;97983.75;;;19.20;67.84
8894;BME280;4483;48.622;9.230;2022-10-31T13:01:46;97977.31;;;19.13;68.52
8894;BME280;4483;48.622;9.230;2022-10-31T13:04:21;97981.44;;;19.04;68.30
8894;BME280;4483;48.622;9.230;2022-10-31T13:06:54;97988.44;;;19.03;68.92
8894;BME280;4483;48.622;9.230;2022-10-31T13:09:30;97980.72;;;19.02;69.21
8894;BME280;4483;48.622;9.230;2022-10-31T13:12:02;97978.22;;;19.00;69.35
8894;BME280;4483;48.622;9.230;2022-10-31T13:14:34;97967.06;;;18.98;69.29
8894;BME280;4483;48.622;9.230;2022-10-31T13:17:04;97975.38;;;19.03;69.24
8894;BME280;4483;48.622;9.230;2022-10-31T13:19:34;97971.94;;;19.03;69.42
8894;BME280;4483;48.622;9.230;2022-10-31T13:22:06;97970.78;;;19.07;68.96
8894;BME280;4483;48.622;9.230;2022-10-31T13:24:39;97963.72;;;19.20;68.69
8894;BME280;4483;48.622;9.230;2022-10-31T13:27:14;97952.66;;;19.17;68.46
8894;BME280;4483;48.622;9.230;2022-10-31T13:30:01;97962.53;;;19.24;67.70
8894;BME280;4483;48.622;9.230;2022-10-31T13:32:30;97957.69;;;19.31;67.87
8894;BME280;4483;48.622;9.230;2022-10-31T13:35:05;97955.16;;;19.42;68.02
8894;BME280;4483;48.622;9.230;2022-10-31T13:37:37;97951.16;;;19.60;68.00
8894;BME280;4483;48.622;9.230;2022-10-31T13:40:14;97935.38;;;19.72;67.67